createdAt,value
2017-07-11T00:00:24.773Z,10.32
2017-07-11T00:02:59.354Z,10.85
2017-07-11T00:05:33.873Z,10.68
2017-07-11T00:08:08.353Z,12.30
2017-07-11T00:10:42.709Z,12.63
2017-07-11T00:13:17.204Z,10.82
2017-07-11T00:21:41.281Z,12.95
2017-07-11T00:24:15.731Z,14.25
2017-07-11T00:26:50.242Z,14.10
2017-07-11T00:29:24.890Z,21.85
2017-07-11T00:32:00.197Z,28.15
2017-07-11T00:34:34.858Z,34.58
2017-07-11T00:37:09.708Z,38.33
2017-07-11T00:39:44.921Z,19.73
2017-07-11T00:42:19.294Z,38.85
2017-07-11T00:44:53.718Z,22.62
2017-07-11T00:47:29.074Z,20.85
2017-07-11T00:50:03.649Z,19.20
2017-07-11T00:52:38.103Z,27.23
2017-07-11T00:55:12.702Z,17.30
2017-07-11T00:57:47.221Z,18.75
2017-07-11T01:00:21.631Z,24.27
2017-07-11T01:02:56.174Z,14.40
2017-07-11T01:05:30.689Z,17.42
2017-07-11T01:08:05.273Z,16.50
2017-07-11T01:10:40.623Z,19.70
2017-07-11T01:13:15.917Z,16.35
2017-07-11T01:15:50.691Z,15.13
2017-07-11T01:18:25.158Z,19.37
2017-07-11T01:20:59.614Z,16.05
2017-07-11T01:23:34.840Z,15.52
2017-07-11T01:26:09.349Z,15.57
2017-07-11T01:28:44.597Z,16.23
2017-07-11T01:31:19.150Z,16.45
2017-07-11T01:33:53.609Z,17.30
2017-07-11T01:36:34.832Z,17.30
2017-07-11T01:39:09.198Z,17.95
2017-07-11T01:41:43.793Z,19.77
2017-07-11T01:44:18.286Z,19.70
2017-07-11T01:46:52.944Z,19.15
2017-07-11T01:49:28.233Z,23.92
2017-07-11T01:52:02.998Z,25.98
2017-07-11T01:54:37.495Z,29.40
2017-07-11T01:57:12.041Z,23.73
2017-07-11T01:59:46.656Z,22.73
2017-07-11T02:02:21.066Z,19.75
2017-07-11T02:04:55.637Z,18.65
2017-07-11T02:07:30.161Z,24.48
2017-07-11T02:10:04.545Z,19.80
2017-07-11T02:12:39.065Z,21.98
2017-07-11T02:15:13.819Z,27.45
2017-07-11T02:17:48.258Z,23.42
2017-07-11T02:20:22.717Z,47.42
2017-07-11T02:22:57.361Z,27.17
2017-07-11T02:25:31.859Z,22.85
2017-07-11T02:28:06.474Z,24.23
2017-07-11T02:30:41.014Z,27.70
2017-07-11T02:33:15.454Z,21.67
2017-07-11T02:35:50.182Z,25.12
2017-07-11T02:38:24.593Z,27.70
2017-07-11T02:40:59.045Z,21.42
2017-07-11T02:43:34.312Z,24.50
2017-07-11T02:46:09.768Z,19.75
2017-07-11T02:48:44.899Z,26.00
2017-07-11T02:51:19.579Z,26.62
2017-07-11T02:53:54.110Z,26.25
2017-07-11T02:56:28.581Z,28.10
2017-07-11T02:59:03.086Z,22.25
2017-07-11T03:01:37.599Z,28.65
2017-07-11T03:04:12.810Z,24.25
2017-07-11T03:06:47.349Z,23.08
2017-07-11T03:09:21.826Z,22.73
2017-07-11T03:11:56.332Z,22.90
2017-07-11T03:14:30.970Z,25.98
2017-07-11T03:17:05.497Z,23.67
2017-07-11T03:19:39.998Z,22.40
2017-07-11T03:22:14.501Z,29.58
2017-07-11T03:24:49.655Z,27.60
2017-07-11T03:27:24.079Z,24.20
2017-07-11T03:29:58.797Z,27.85
2017-07-11T03:32:33.316Z,23.42
2017-07-11T03:35:07.730Z,23.87
2017-07-11T03:37:42.973Z,27.37
2017-07-11T03:40:17.720Z,27.20
2017-07-11T03:42:52.241Z,30.33
2017-07-11T03:45:26.665Z,26.58
2017-07-11T03:48:01.965Z,28.25
2017-07-11T03:50:37.377Z,27.05
2017-07-11T03:53:12.741Z,27.08
2017-07-11T03:55:48.337Z,28.12
2017-07-11T03:58:22.642Z,32.97
2017-07-11T04:00:57.070Z,34.05
2017-07-11T04:03:31.574Z,29.02
2017-07-11T04:06:05.982Z,32.50
2017-07-11T04:08:42.039Z,35.88
2017-07-11T04:11:16.641Z,37.25
2017-07-11T04:13:51.086Z,38.53
2017-07-11T04:16:25.410Z,35.92
2017-07-11T04:18:59.902Z,33.38
2017-07-11T04:21:34.421Z,38.38
2017-07-11T04:24:08.981Z,36.83
2017-07-11T04:26:43.391Z,34.40
2017-07-11T04:29:18.314Z,33.88
2017-07-11T04:31:52.891Z,29.60
2017-07-11T04:34:27.435Z,42.08
2017-07-11T04:37:02.134Z,38.13
2017-07-11T04:39:36.515Z,36.55
2017-07-11T04:42:11.701Z,34.15
2017-07-11T04:44:46.068Z,34.80
2017-07-11T04:47:20.497Z,37.92
2017-07-11T04:49:55.002Z,32.78
2017-07-11T04:52:30.163Z,32.60
2017-07-11T04:55:05.374Z,31.80
2017-07-11T04:57:39.901Z,32.70
2017-07-11T05:00:14.659Z,30.90
2017-07-11T05:02:49.666Z,36.63
2017-07-11T05:05:24.217Z,35.72
2017-07-11T05:07:58.675Z,40.40
2017-07-11T05:10:33.357Z,40.90
2017-07-11T05:13:07.858Z,42.08
2017-07-11T05:15:42.275Z,41.80
2017-07-11T05:18:16.591Z,49.85
2017-07-11T05:20:51.790Z,48.78
2017-07-11T05:23:26.120Z,54.05
2017-07-11T05:26:00.586Z,54.38
2017-07-11T05:28:35.085Z,64.80
2017-07-11T05:31:09.495Z,52.17
2017-07-11T05:33:44.726Z,53.35
2017-07-11T05:36:19.493Z,53.95
2017-07-11T05:38:54.006Z,61.47
2017-07-11T05:41:28.637Z,60.20
2017-07-11T05:44:03.109Z,55.90
2017-07-11T05:46:37.602Z,58.00
2017-07-11T05:49:12.829Z,61.45
2017-07-11T05:51:47.217Z,52.03
2017-07-11T05:54:22.833Z,50.80
2017-07-11T05:56:57.153Z,51.03
2017-07-11T05:59:31.738Z,62.03
2017-07-11T06:02:07.044Z,59.20
2017-07-11T06:04:41.504Z,51.35
2017-07-11T06:07:15.994Z,56.83
2017-07-11T06:09:50.922Z,56.88
2017-07-11T06:12:27.398Z,61.25
2017-07-11T06:15:01.889Z,59.80
2017-07-11T06:17:37.250Z,59.55
2017-07-11T06:20:11.570Z,63.00
2017-07-11T06:22:46.098Z,69.90
2017-07-11T06:25:20.553Z,71.03
2017-07-11T06:27:54.948Z,72.87
2017-07-11T06:30:29.673Z,70.78
2017-07-11T06:33:04.158Z,76.90
2017-07-11T06:35:38.573Z,76.07
2017-07-11T06:38:14.154Z,81.57
2017-07-11T06:40:48.534Z,68.45
2017-07-11T06:43:23.166Z,77.82
2017-07-11T06:45:57.596Z,69.95
2017-07-11T06:48:32.057Z,68.22
2017-07-11T06:51:07.249Z,73.45
2017-07-11T06:53:41.736Z,69.95
2017-07-11T06:56:16.305Z,78.43
2017-07-11T06:58:50.749Z,60.38
2017-07-11T07:01:26.199Z,76.60
2017-07-11T07:04:00.789Z,61.03
2017-07-11T07:06:35.178Z,64.12
2017-07-11T07:09:09.637Z,62.05
2017-07-11T07:11:44.168Z,60.20
2017-07-11T07:14:18.794Z,59.80
2017-07-11T07:16:54.101Z,53.40
2017-07-11T07:19:28.553Z,65.75
2017-07-11T07:22:02.963Z,65.30
2017-07-11T07:24:37.393Z,80.05
2017-07-11T07:27:11.886Z,54.97
2017-07-11T07:29:46.535Z,55.53
2017-07-11T07:32:21.049Z,49.40
2017-07-11T07:34:56.181Z,51.10
2017-07-11T07:37:30.646Z,57.50
2017-07-11T07:40:05.106Z,53.00
2017-07-11T07:42:39.573Z,55.70
2017-07-11T07:45:14.061Z,48.33
2017-07-11T07:47:48.715Z,54.97
2017-07-11T07:50:23.066Z,55.25
2017-07-11T07:52:57.415Z,50.95
2017-07-11T07:55:32.646Z,47.00
2017-07-11T07:58:07.214Z,49.78
2017-07-11T08:00:41.550Z,51.72
2017-07-11T08:03:16.114Z,46.78
2017-07-11T08:05:50.525Z,45.45
2017-07-11T08:08:25.086Z,54.05
2017-07-11T08:10:59.577Z,46.17
2017-07-11T08:13:34.226Z,45.67
2017-07-11T08:16:08.742Z,50.55
2017-07-11T08:18:44.086Z,41.75
2017-07-11T08:21:18.573Z,38.95
2017-07-11T08:23:52.990Z,41.63
2017-07-11T08:26:27.579Z,47.03
2017-07-11T08:29:01.902Z,42.80
2017-07-11T08:31:37.078Z,45.97
2017-07-11T08:34:11.530Z,45.15
2017-07-11T08:36:46.035Z,36.58
2017-07-11T08:39:20.662Z,42.03
2017-07-11T08:41:54.957Z,38.20
2017-07-11T08:44:29.387Z,40.20
2017-07-11T08:47:03.766Z,34.13
2017-07-11T08:49:38.237Z,35.17
2017-07-11T08:52:12.754Z,34.55
2017-07-11T08:54:47.198Z,34.22
2017-07-11T08:57:21.739Z,38.33
2017-07-11T08:59:56.125Z,33.33
2017-07-11T09:02:30.622Z,31.08
2017-07-11T09:05:05.114Z,34.00
2017-07-11T09:07:40.378Z,32.10
2017-07-11T09:10:14.946Z,30.65
2017-07-11T09:12:50.237Z,29.73
2017-07-11T09:15:24.614Z,28.92
2017-07-11T09:17:58.978Z,27.35
2017-07-11T09:20:33.523Z,29.67
2017-07-11T09:23:08.831Z,27.90
2017-07-11T09:25:43.433Z,25.25
2017-07-11T09:28:17.955Z,26.30
2017-07-11T09:30:52.550Z,25.40
2017-07-11T09:33:27.013Z,23.65
2017-07-11T09:36:01.573Z,23.92
2017-07-11T09:38:36.145Z,21.70
2017-07-11T09:41:10.538Z,23.77
2017-07-11T09:43:44.893Z,21.65
2017-07-11T09:46:19.242Z,20.23
2017-07-11T09:48:53.757Z,18.85
2017-07-11T09:51:29.132Z,20.93
2017-07-11T09:54:04.381Z,17.70
2017-07-11T09:56:38.761Z,15.73
2017-07-11T09:59:13.248Z,15.97
2017-07-11T10:01:48.426Z,14.00
2017-07-11T10:04:22.824Z,14.50
2017-07-11T10:06:57.346Z,16.00
2017-07-11T10:09:31.889Z,17.17
2017-07-11T10:12:06.310Z,17.70
2017-07-11T10:14:41.421Z,17.47
2017-07-11T10:17:15.973Z,19.53
2017-07-11T10:19:50.537Z,17.50
2017-07-11T10:22:24.926Z,20.67
2017-07-11T10:24:59.442Z,20.00
2017-07-11T10:27:33.933Z,21.33
2017-07-11T10:30:09.070Z,18.60
2017-07-11T10:32:43.593Z,19.40
2017-07-11T10:35:17.989Z,21.50
2017-07-11T10:37:52.442Z,22.13
2017-07-11T10:40:26.799Z,19.57
2017-07-11T10:43:01.188Z,20.47
2017-07-11T10:45:35.689Z,21.50
2017-07-11T10:48:10.098Z,22.30
2017-07-11T10:50:45.357Z,22.27
2017-07-11T10:53:20.090Z,20.50
2017-07-11T10:55:54.601Z,18.10
2017-07-11T10:58:29.041Z,16.27
2017-07-11T11:01:03.541Z,15.20
2017-07-11T11:03:37.930Z,14.43
2017-07-11T11:06:12.473Z,15.63
2017-07-11T11:08:46.897Z,16.87
2017-07-11T11:11:21.313Z,17.70
2017-07-11T11:13:55.774Z,15.03
2017-07-11T11:16:30.365Z,9.63
2017-07-11T11:22:09.535Z,14.10
2017-07-11T11:24:44.060Z,16.23
2017-07-11T11:27:18.673Z,17.87
2017-07-11T11:29:52.974Z,20.77
2017-07-11T11:32:27.396Z,21.10
2017-07-11T11:35:01.777Z,20.75
2017-07-11T11:37:36.380Z,20.48
2017-07-11T11:40:10.845Z,17.15
2017-07-11T11:42:45.290Z,18.87
2017-07-11T11:45:20.022Z,9.98
2017-07-11T11:47:54.519Z,8.60
2017-07-11T11:50:28.929Z,9.45
2017-07-11T11:53:03.681Z,7.07
2017-07-11T11:55:38.189Z,7.87
2017-07-11T11:58:12.610Z,9.07
2017-07-11T12:00:47.132Z,9.13
2017-07-11T12:03:21.541Z,11.75
2017-07-11T12:05:56.762Z,13.73
2017-07-11T12:08:31.394Z,10.73
2017-07-11T12:11:05.740Z,11.30
2017-07-11T12:13:40.485Z,12.98
2017-07-11T12:16:14.859Z,11.90
2017-07-11T12:18:49.342Z,11.77
2017-07-11T12:21:23.913Z,13.35
2017-07-11T12:23:58.329Z,13.27
2017-07-11T12:26:32.779Z,12.80
2017-07-11T12:29:07.367Z,11.95
2017-07-11T12:31:41.914Z,13.60
2017-07-11T12:34:16.390Z,12.02
2017-07-11T12:36:51.634Z,13.90
2017-07-11T12:39:26.110Z,12.90
2017-07-11T12:42:00.618Z,16.87
2017-07-11T12:44:35.182Z,11.88
2017-07-11T12:47:09.577Z,9.50
2017-07-11T12:49:44.138Z,11.35
2017-07-11T12:52:18.704Z,10.55
2017-07-11T12:54:54.171Z,10.40
2017-07-11T12:57:29.393Z,9.38
2017-07-11T13:00:03.896Z,7.17
2017-07-11T13:02:38.310Z,6.43
2017-07-11T13:05:13.057Z,6.13
2017-07-11T13:07:47.574Z,8.40
2017-07-11T13:10:22.200Z,6.10
2017-07-11T13:12:57.516Z,5.80
2017-07-11T13:15:32.021Z,4.87
2017-07-11T13:18:07.154Z,5.70
2017-07-11T13:20:42.433Z,4.73
2017-07-11T13:23:16.976Z,5.00
2017-07-11T13:25:52.540Z,4.90
2017-07-11T13:28:26.889Z,5.90
2017-07-11T13:31:01.254Z,5.85
2017-07-11T13:33:35.746Z,5.20
2017-07-11T13:36:10.158Z,4.87
2017-07-11T13:38:44.698Z,4.97
2017-07-11T13:41:19.098Z,5.07
2017-07-11T13:43:53.645Z,5.27
2017-07-11T13:46:28.206Z,5.80
2017-07-11T13:49:02.684Z,5.80
2017-07-11T13:51:37.849Z,5.95
2017-07-11T13:54:12.480Z,5.95
2017-07-11T13:56:47.243Z,5.62
2017-07-11T13:59:22.316Z,5.07
2017-07-11T14:01:56.682Z,4.70
2017-07-11T14:04:31.142Z,5.15
2017-07-11T14:07:06.333Z,4.22
2017-07-11T14:09:41.511Z,4.05
2017-07-11T14:12:15.981Z,4.07
2017-07-11T14:14:50.668Z,5.12
2017-07-11T14:17:25.057Z,4.70
2017-07-11T14:19:59.470Z,6.03
2017-07-11T14:22:33.892Z,5.83
2017-07-11T14:25:08.325Z,3.90
2017-07-11T14:27:43.673Z,7.33
2017-07-11T14:30:18.118Z,6.10
2017-07-11T14:32:52.535Z,5.47
2017-07-11T14:35:27.009Z,5.53
2017-07-11T14:38:01.465Z,6.17
2017-07-11T14:40:36.026Z,7.07
2017-07-11T14:43:10.543Z,8.25
2017-07-11T14:45:45.196Z,5.47
2017-07-11T14:48:19.621Z,5.77
2017-07-11T14:50:54.034Z,8.93
2017-07-11T14:53:28.549Z,4.77
2017-07-11T14:56:03.086Z,3.47
2017-07-11T14:58:37.422Z,5.90
2017-07-11T15:01:11.823Z,4.30
2017-07-11T15:03:46.233Z,3.78
2017-07-11T15:06:20.786Z,6.10
2017-07-11T15:08:55.246Z,4.53
2017-07-11T15:11:30.405Z,6.70
2017-07-11T15:14:05.069Z,5.85
2017-07-11T15:16:39.566Z,5.37
2017-07-11T15:19:14.045Z,6.00
2017-07-11T15:21:48.546Z,6.93
2017-07-11T15:24:23.022Z,5.60
2017-07-11T15:26:57.703Z,5.53
2017-07-11T15:29:32.096Z,6.12
2017-07-11T15:32:06.521Z,4.70
2017-07-11T15:34:40.935Z,5.90
2017-07-11T15:37:15.330Z,4.32
2017-07-11T15:39:50.034Z,5.00
2017-07-11T15:42:25.181Z,4.87
2017-07-11T15:44:59.634Z,4.40
2017-07-11T15:47:34.038Z,4.22
2017-07-11T15:50:08.490Z,5.22
2017-07-11T15:52:43.135Z,5.03
2017-07-11T15:55:18.305Z,4.47
2017-07-11T15:57:52.797Z,7.80
2017-07-11T16:00:28.001Z,5.05
2017-07-11T16:03:03.334Z,4.93
2017-07-11T16:05:37.858Z,4.60
2017-07-11T16:08:12.318Z,4.90
2017-07-11T16:10:46.927Z,6.45
2017-07-11T16:13:21.384Z,4.37
2017-07-11T16:15:56.620Z,4.30
2017-07-11T16:18:31.042Z,4.57
2017-07-11T16:21:05.616Z,5.33
2017-07-11T16:23:40.124Z,5.65
2017-07-11T16:26:14.642Z,4.78
2017-07-11T16:28:48.981Z,5.37
2017-07-11T16:31:23.561Z,4.78
2017-07-11T16:33:58.094Z,4.68
2017-07-11T16:36:33.345Z,4.43
2017-07-11T16:39:08.645Z,4.25
2017-07-11T16:41:43.122Z,5.25
2017-07-11T16:44:18.430Z,4.90
2017-07-11T16:46:52.978Z,4.35
2017-07-11T16:49:27.490Z,3.70
2017-07-11T16:52:01.857Z,2.92
2017-07-11T16:54:36.202Z,3.30
2017-07-11T16:57:10.661Z,3.08
2017-07-11T16:59:46.676Z,3.10
2017-07-11T17:02:21.438Z,3.50
2017-07-11T17:04:56.768Z,3.30
2017-07-11T17:07:31.402Z,3.10
2017-07-11T17:10:05.906Z,4.28
2017-07-11T17:12:40.330Z,3.70
2017-07-11T17:15:16.350Z,3.47
2017-07-11T17:17:50.906Z,3.33
2017-07-11T17:20:25.305Z,3.08
2017-07-11T17:22:59.841Z,4.55
2017-07-11T17:25:34.255Z,3.08
2017-07-11T17:28:08.842Z,2.97
2017-07-11T17:30:43.302Z,5.35
2017-07-11T17:33:17.678Z,3.80
2017-07-11T17:35:52.275Z,4.12
2017-07-11T17:38:26.638Z,5.00
2017-07-11T17:41:01.093Z,3.53
2017-07-11T17:43:36.274Z,3.50
2017-07-11T17:46:10.754Z,3.28
2017-07-11T17:48:45.142Z,4.37
2017-07-11T17:51:19.621Z,4.15
2017-07-11T17:53:55.354Z,3.45
2017-07-11T17:56:29.895Z,3.75
2017-07-11T17:59:04.273Z,4.28
2017-07-11T18:01:38.661Z,3.15
2017-07-11T18:04:13.256Z,3.95
2017-07-11T18:06:48.451Z,3.55
2017-07-11T18:09:23.090Z,4.35
2017-07-11T18:11:57.461Z,3.45
2017-07-11T18:14:31.847Z,2.00
2017-07-11T18:17:06.362Z,6.40
2017-07-11T18:19:40.766Z,2.20
2017-07-11T18:22:15.282Z,2.40
2017-07-11T18:24:49.824Z,2.90
2017-07-11T18:27:24.326Z,5.45
2017-07-11T18:29:58.746Z,3.28
2017-07-11T18:32:33.193Z,6.85
2017-07-11T18:35:07.565Z,4.20
2017-07-11T18:37:42.183Z,5.40
2017-07-11T18:40:16.774Z,4.75
2017-07-11T18:42:51.117Z,3.47
2017-07-11T18:45:25.783Z,5.25
2017-07-11T18:48:00.314Z,2.55
2017-07-11T18:50:34.978Z,1.95
2017-07-11T18:53:09.548Z,1.80
2017-07-11T18:55:44.052Z,2.30
2017-07-11T18:58:18.551Z,3.55
2017-07-11T19:00:52.922Z,5.45
2017-07-11T19:03:28.018Z,4.40
2017-07-11T19:06:02.545Z,3.45
2017-07-11T19:08:37.030Z,2.33
2017-07-11T19:11:11.405Z,6.55
2017-07-11T19:13:45.951Z,6.25
2017-07-11T19:16:20.353Z,4.57
2017-07-11T19:18:54.933Z,3.90
2017-07-11T19:21:29.369Z,3.92
2017-07-11T19:24:03.956Z,4.22
2017-07-11T19:26:38.306Z,8.63
2017-07-11T19:29:12.679Z,3.50
2017-07-11T19:31:47.160Z,4.62
2017-07-11T19:34:21.623Z,2.17
2017-07-11T19:36:56.186Z,3.10
2017-07-11T19:39:30.602Z,5.75
2017-07-11T19:42:05.157Z,4.25
2017-07-11T19:44:39.578Z,3.33
2017-07-11T19:47:14.084Z,4.82
2017-07-11T19:49:48.789Z,2.30
2017-07-11T19:52:23.331Z,5.35
2017-07-11T19:54:57.706Z,5.28
2017-07-11T19:57:32.249Z,5.80
2017-07-11T20:00:06.650Z,5.30
2017-07-11T20:02:41.191Z,5.57
2017-07-11T20:05:15.724Z,3.12
2017-07-11T20:07:50.247Z,5.68
2017-07-11T20:10:24.667Z,3.35
2017-07-11T20:12:59.205Z,4.22
2017-07-11T20:15:33.589Z,4.45
2017-07-11T20:18:08.830Z,4.78
2017-07-11T20:20:43.403Z,9.77
2017-07-11T20:23:17.935Z,4.72
2017-07-11T20:25:52.415Z,7.20
2017-07-11T20:28:26.965Z,3.45
2017-07-11T20:31:01.787Z,15.10
2017-07-11T20:33:36.539Z,11.90
2017-07-11T20:36:11.009Z,13.27
2017-07-11T20:38:45.462Z,3.30
2017-07-11T20:41:19.922Z,5.05
2017-07-11T20:43:54.493Z,5.22
2017-07-11T20:46:28.878Z,6.18
2017-07-11T20:49:03.350Z,6.47
2017-07-11T20:51:37.947Z,7.65
2017-07-11T20:54:12.614Z,9.32
2017-07-11T20:56:47.939Z,5.43
2017-07-11T20:59:22.330Z,8.43
2017-07-11T21:01:56.749Z,8.45
2017-07-11T21:04:31.295Z,3.80
2017-07-11T21:07:05.773Z,4.55
2017-07-11T21:09:40.226Z,5.87
2017-07-11T21:12:14.822Z,11.68
2017-07-11T21:14:49.474Z,6.22
2017-07-11T21:17:23.757Z,4.37
2017-07-11T21:19:58.118Z,5.50
2017-07-11T21:22:32.623Z,5.90
2017-07-11T21:25:07.038Z,6.80
2017-07-11T21:27:42.332Z,4.85
2017-07-11T21:30:16.826Z,5.32
2017-07-11T21:32:51.413Z,9.77
2017-07-11T21:35:25.977Z,6.45
2017-07-11T21:38:00.471Z,11.18
2017-07-11T21:40:34.978Z,3.90
2017-07-11T21:43:09.550Z,5.47
2017-07-11T21:45:44.083Z,4.40
2017-07-11T21:48:18.881Z,7.05
2017-07-11T21:50:53.255Z,4.60
2017-07-11T21:53:27.686Z,7.62
2017-07-11T21:56:02.226Z,8.85
2017-07-11T21:58:36.657Z,5.25
2017-07-11T22:01:11.150Z,6.30
2017-07-11T22:03:45.494Z,6.87
2017-07-11T22:06:20.263Z,14.10
2017-07-11T22:08:54.834Z,4.75
2017-07-11T22:11:29.329Z,7.37
2017-07-11T22:14:04.489Z,4.95
2017-07-11T22:16:38.899Z,6.47
2017-07-11T22:19:13.330Z,5.95
2017-07-11T22:21:47.830Z,7.30
2017-07-11T22:24:22.237Z,5.45
2017-07-11T22:26:56.700Z,5.70
2017-07-11T22:29:31.105Z,6.85
2017-07-11T22:32:05.593Z,11.25
2017-07-11T22:34:40.050Z,7.28
2017-07-11T22:37:14.558Z,6.15
2017-07-11T22:39:48.964Z,8.18
2017-07-11T22:42:23.534Z,5.93
2017-07-11T22:44:58.023Z,6.37
2017-07-11T22:47:32.447Z,5.60
2017-07-11T22:50:06.942Z,6.82
2017-07-11T22:52:41.378Z,8.25
2017-07-11T22:55:16.041Z,6.62
2017-07-11T22:57:50.437Z,9.85
2017-07-11T23:00:24.850Z,6.07
2017-07-11T23:02:59.332Z,6.22
2017-07-11T23:05:33.726Z,8.07
2017-07-11T23:08:08.211Z,5.65
2017-07-11T23:10:43.339Z,7.40
2017-07-11T23:13:17.910Z,4.45
2017-07-11T23:15:52.482Z,4.85
2017-07-11T23:18:26.899Z,8.82
2017-07-11T23:21:01.437Z,4.87
2017-07-11T23:23:35.910Z,4.65
2017-07-11T23:26:10.407Z,5.35
2017-07-11T23:28:44.846Z,6.57
2017-07-11T23:31:19.311Z,8.93
2017-07-11T23:33:53.842Z,5.22
2017-07-11T23:36:28.226Z,6.82
2017-07-11T23:39:03.382Z,5.70
2017-07-11T23:41:38.038Z,5.53
2017-07-11T23:44:12.526Z,4.87
2017-07-11T23:46:46.947Z,8.30
2017-07-11T23:49:21.453Z,5.40
2017-07-11T23:51:55.967Z,4.20
2017-07-11T23:54:30.509Z,8.30
2017-07-11T23:57:05.153Z,6.00
2017-07-11T23:59:39.649Z,7.45
